Time;durP1;ratioP1;P1;durP2;ratioP2;P2;SDS_P1;SDS_P2;PMS_P1;PMS_P2;Temp;Humidity;BMP_temperature;BMP_pressure;BME280_temperature;BME280_humidity;BME280_pressure;Samples;Min_cycle;Max_cycle;Signal;HPM_P1;HPM_P2
2022/01/23 00:00:18;;;;;;;32.40;12.20;;;;;;;;;;5030710;28;20057;-56
2022/01/23 00:02:45;;;;;;;33.08;12.27;;;;;;;;;;5019853;28;20111;-57
2022/01/23 00:05:12;;;;;;;25.38;12.18;;;;;;;;;;5026802;28;20053;-58
2022/01/23 00:07:40;;;;;;;28.10;13.43;;;;;;;;;;5024716;28;20068;-59
2022/01/23 00:10:09;;;;;;;27.13;11.60;;;;;;;;;;5013675;28;20057;-59
2022/01/23 00:12:42;;;;;;;30.20;12.40;;;;;;;;;;5006474;28;20060;-59
2022/01/23 00:17:55;;;;;;;28.05;11.95;;;;;;;;;;5022534;28;20449;-60
2022/01/23 00:20:22;;;;;;;31.27;13.68;;;;;;;;;;5010831;28;20297;-59
2022/01/23 00:22:51;;;;;;;28.33;11.85;;;;;;;;;;5007825;28;20056;-57
2022/01/23 00:30:49;;;;;;;29.05;12.27;;;;;;;;;;5016427;28;20164;-55
2022/01/23 00:33:15;;;;;;;;;;;;;;;;;;5022928;28;20140;-55
2022/01/23 00:35:43;;;;;;;27.83;10.93;;;;;;;;;;5024486;28;20008;-51
2022/01/23 00:38:10;;;;;;;26.95;12.20;;;;;;;;;;5026443;28;20127;-56
2022/01/23 00:40:37;;;;;;;26.95;11.93;;;;;;;;;;5023898;28;20064;-51
2022/01/23 00:43:12;;;;;;;28.15;12.07;;;;;;;;;;5030006;28;20167;-53
2022/01/23 00:45:45;;;;;;;30.45;13.07;;;;;;;;;;5025375;28;20087;-53
2022/01/23 00:48:14;;;;;;;28.63;12.63;;;;;;;;;;5047953;28;20055;-55
2022/01/23 00:50:41;;;;;;;29.80;13.48;;;;;;;;;;5042089;28;20052;-56
2022/01/23 00:53:09;;;;;;;30.23;12.98;;;;;;;;;;5029610;28;20119;-56
2022/01/23 00:55:36;;;;;;;33.03;12.18;;;;;;;;;;5021702;28;20053;-57
2022/01/23 00:58:03;;;;;;;27.00;12.15;;;;;;;;;;5026730;28;20037;-55
2022/01/23 01:00:29;;;;;;;23.90;11.90;;;;;;;;;;5014580;28;20139;-56
2022/01/23 01:02:58;;;;;;;25.80;11.00;;;;;;;;;;5009271;28;20081;-53
2022/01/23 01:05:27;;;;;;;26.27;11.38;;;;;;;;;;5004913;28;20134;-54
2022/01/23 01:07:53;;;;;;;26.42;11.15;;;;;;;;;;5017934;28;20056;-54
2022/01/23 01:10:24;;;;;;;25.17;11.35;;;;;;;;;;5040571;28;20115;-57
2022/01/23 01:12:55;;;;;;;26.38;12.43;;;;;;;;;;5029692;28;20059;-54
2022/01/23 01:15:51;;;;;;;24.40;11.82;;;;;;;;;;5024133;28;20049;-56
2022/01/23 01:32:05;;;;;;;29.58;11.23;;;;;;;;;;5024391;28;20091;-53
2022/01/23 01:34:38;;;;;;;27.80;11.73;;;;;;;;;;5028463;28;20147;-59
2022/01/23 01:37:08;;;;;;;27.15;11.73;;;;;;;;;;5003870;28;20068;-60
2022/01/23 01:39:35;;;;;;;27.63;11.60;;;;;;;;;;5009660;28;20064;-56
2022/01/23 01:42:01;;;;;;;25.52;11.82;;;;;;;;;;5004373;28;20136;-57
2022/01/23 01:44:28;;;;;;;25.38;11.73;;;;;;;;;;5009061;28;20061;-58
2022/01/23 01:46:54;;;;;;;25.40;10.73;;;;;;;;;;5012706;28;20067;-57
2022/01/23 01:49:27;;;;;;;24.02;10.05;;;;;;;;;;5014381;28;20100;-56
2022/01/23 01:51:54;;;;;;;24.63;10.98;;;;;;;;;;5014832;28;20044;-57
2022/01/23 01:54:25;;;;;;;26.08;11.10;;;;;;;;;;5034100;28;20057;-52
2022/01/23 01:57:02;;;;;;;26.92;11.05;;;;;;;;;;5023862;28;20143;-54
2022/01/23 02:10:30;;;;;;;25.60;10.48;;;;;;;;;;5012793;28;20056;-53
2022/01/23 02:13:06;;;;;;;25.60;10.75;;;;;;;;;;5015034;28;20045;-51
2022/01/23 02:18:43;;;;;;;25.85;10.15;;;;;;;;;;5043130;28;20060;-52
2022/01/23 02:51:32;;;;;;;24.77;10.35;;;;;;;;;;5049622;28;20060;-55
2022/01/23 02:54:20;;;;;;;28.13;11.30;;;;;;;;;;5042078;28;20064;-56
2022/01/23 02:56:49;;;;;;;25.25;9.70;;;;;;;;;;5052834;28;20057;-57
2022/01/23 02:59:20;;;;;;;25.23;10.35;;;;;;;;;;5062624;28;20048;-61
2022/01/23 03:02:07;;;;;;;24.52;11.45;;;;;;;;;;5052298;28;20052;-56
2022/01/23 03:04:38;;;;;;;27.92;10.73;;;;;;;;;;5049461;28;20067;-55
2022/01/23 03:07:30;;;;;;;22.02;9.93;;;;;;;;;;5052017;28;20059;-51
2022/01/23 03:10:02;;;;;;;25.05;10.38;;;;;;;;;;5052035;28;20040;-52
2022/01/23 03:15:42;;;;;;;;;;;;;;;;;;5052735;28;20468;-52
2022/01/23 03:26:33;;;;;;;23.95;10.20;;;;;;;;;;5032150;28;20140;-57
2022/01/23 03:29:18;;;;;;;23.58;9.57;;;;;;;;;;5029121;28;20077;-56
2022/01/23 03:31:58;;;;;;;24.08;10.23;;;;;;;;;;5028940;28;20053;-57
2022/01/23 03:34:27;;;;;;;23.50;9.65;;;;;;;;;;5011989;28;20053;-56
2022/01/23 03:36:54;;;;;;;23.50;10.35;;;;;;;;;;5028380;28;20085;-56
2022/01/23 03:39:21;;;;;;;26.05;10.18;;;;;;;;;;5028521;28;20057;-53
2022/01/23 03:41:49;;;;;;;26.00;9.95;;;;;;;;;;5028353;28;20080;-56
2022/01/23 03:44:22;;;;;;;23.27;9.95;;;;;;;;;;5029229;28;20071;-57
2022/01/23 03:47:01;;;;;;;23.73;10.45;;;;;;;;;;5031737;28;20053;-56
2022/01/23 03:49:32;;;;;;;20.73;9.82;;;;;;;;;;5028283;28;20041;-54
2022/01/23 03:52:02;;;;;;;24.13;10.60;;;;;;;;;;5027914;28;20053;-53
2022/01/23 03:54:29;;;;;;;27.23;10.40;;;;;;;;;;5027864;28;20053;-55
2022/01/23 03:56:57;;;;;;;28.63;10.88;;;;;;;;;;5028261;28;20115;-53
2022/01/23 03:59:24;;;;;;;25.35;10.27;;;;;;;;;;5027817;28;20065;-57
2022/01/23 04:01:51;;;;;;;24.48;10.07;;;;;;;;;;5028281;28;20060;-54
2022/01/23 04:04:32;;;;;;;23.55;10.10;;;;;;;;;;5027616;28;20064;-57
2022/01/23 04:06:59;;;;;;;22.70;10.38;;;;;;;;;;5029791;28;20156;-56
2022/01/23 04:09:29;;;;;;;22.15;9.80;;;;;;;;;;5027010;28;20061;-51
2022/01/23 04:11:58;;;;;;;27.92;10.85;;;;;;;;;;5062662;28;20069;-53
2022/01/23 04:14:29;;;;;;;24.63;10.57;;;;;;;;;;5027921;28;20062;-53
2022/01/23 04:17:29;;;;;;;22.13;10.43;;;;;;;;;;5027344;28;20140;-52
2022/01/23 04:20:19;;;;;;;21.13;9.93;;;;;;;;;;5027473;28;20053;-51
2022/01/23 04:33:53;;;;;;;22.95;10.32;;;;;;;;;;5026958;28;20176;-51
2022/01/23 05:01:35;;;;;;;25.73;10.77;;;;;;;;;;5011810;22;20123;-59
2022/01/23 05:04:14;;;;;;;23.67;9.88;;;;;;;;;;5011958;28;20060;-54
2022/01/23 05:06:46;;;;;;;23.80;9.85;;;;;;;;;;5005524;28;20064;-54
2022/01/23 05:09:13;;;;;;;26.30;10.40;;;;;;;;;;5025133;28;20053;-53
2022/01/23 05:11:48;;;;;;;25.98;10.07;;;;;;;;;;5020247;28;20041;-52
2022/01/23 05:14:17;;;;;;;21.80;10.25;;;;;;;;;;5010439;28;20049;-60
2022/01/23 05:16:45;;;;;;;23.30;9.85;;;;;;;;;;5004274;28;20053;-56
2022/01/23 05:19:12;;;;;;;22.95;10.27;;;;;;;;;;5008872;28;20115;-60
2022/01/23 05:24:26;;;;;;;24.95;10.32;;;;;;;;;;5002334;28;20133;-60
2022/01/23 05:26:58;;;;;;;23.13;10.18;;;;;;;;;;5007894;28;20053;-56
2022/01/23 05:29:25;;;;;;;24.50;10.93;;;;;;;;;;5025170;28;20103;-52
2022/01/23 05:31:54;;;;;;;28.42;11.48;;;;;;;;;;5009035;28;20085;-55
2022/01/23 05:34:22;;;;;;;26.75;11.00;;;;;;;;;;4994584;28;20057;-56
2022/01/23 05:36:48;;;;;;;28.02;10.65;;;;;;;;;;5009712;28;20045;-52
2022/01/23 05:39:18;;;;;;;24.95;10.98;;;;;;;;;;5004105;28;20049;-57
2022/01/23 05:41:44;;;;;;;24.13;11.02;;;;;;;;;;5009761;28;20053;-59
2022/01/23 05:44:12;;;;;;;25.05;10.27;;;;;;;;;;5004330;28;20057;-57
2022/01/23 05:46:38;;;;;;;25.23;9.90;;;;;;;;;;5011528;28;20152;-56
2022/01/23 05:49:06;;;;;;;26.25;11.13;;;;;;;;;;5009712;28;20053;-57
2022/01/23 05:51:33;;;;;;;24.93;10.50;;;;;;;;;;5022825;28;20132;-54
2022/01/23 05:53:59;;;;;;;26.27;10.77;;;;;;;;;;5009338;28;20061;-59
2022/01/23 05:56:26;;;;;;;24.85;11.38;;;;;;;;;;5003241;28;20053;-53
2022/01/23 05:58:53;;;;;;;25.55;10.98;;;;;;;;;;5009331;28;20136;-54
2022/01/23 06:01:20;;;;;;;29.67;10.18;;;;;;;;;;5013639;28;20136;-54
2022/01/23 06:03:48;;;;;;;22.08;10.02;;;;;;;;;;5019870;28;20124;-53
2022/01/23 06:06:15;;;;;;;23.15;9.07;;;;;;;;;;5015756;28;20161;-56
2022/01/23 06:08:42;;;;;;;24.63;10.40;;;;;;;;;;5037168;28;20053;-52
2022/01/23 06:11:09;;;;;;;28.13;10.38;;;;;;;;;;5035587;28;20060;-56
2022/01/23 06:13:36;;;;;;;13.23;6.32;;;;;;;;;;5012994;28;20062;-58
2022/01/23 06:16:03;;;;;;;24.25;9.68;;;;;;;;;;5020548;28;20097;-55
2022/01/23 06:18:29;;;;;;;25.02;10.18;;;;;;;;;;5014320;28;20494;-55
2022/01/23 06:20:56;;;;;;;25.70;11.27;;;;;;;;;;5021540;28;20103;-57
2022/01/23 06:23:29;;;;;;;23.00;10.68;;;;;;;;;;5012328;28;20049;-57
2022/01/23 06:25:56;;;;;;;24.98;10.10;;;;;;;;;;5023180;28;20140;-56
2022/01/23 06:28:29;;;;;;;22.98;9.50;;;;;;;;;;5012526;28;20103;-57
2022/01/23 06:30:55;;;;;;;22.33;9.98;;;;;;;;;;5037544;28;20049;-54
2022/01/23 06:33:22;;;;;;;24.35;9.65;;;;;;;;;;5030642;28;20056;-57
2022/01/23 06:35:49;;;;;;;23.85;10.15;;;;;;;;;;5024979;28;20140;-58
2022/01/23 06:38:15;;;;;;;21.75;8.63;;;;;;;;;;5014002;28;21252;-55
2022/01/23 06:40:43;;;;;;;24.17;9.15;;;;;;;;;;5024843;28;20528;-57
2022/01/23 06:43:10;;;;;;;22.10;8.90;;;;;;;;;;5020894;28;20146;-60
2022/01/23 06:45:36;;;;;;;15.02;7.00;;;;;;;;;;5043892;28;20053;-56
2022/01/23 06:48:03;;;;;;;17.73;6.85;;;;;;;;;;5037254;28;20433;-56
2022/01/23 06:50:30;;;;;;;15.98;7.75;;;;;;;;;;5016093;28;20060;-58
2022/01/23 06:52:56;;;;;;;18.20;7.32;;;;;;;;;;5019933;28;20053;-60
2022/01/23 06:55:23;;;;;;;14.38;6.40;;;;;;;;;;5036819;28;20060;-57
2022/01/23 06:57:51;;;;;;;12.05;6.35;;;;;;;;;;5024191;28;20061;-61
2022/01/23 07:00:17;;;;;;;17.90;7.40;;;;;;;;;;5012345;28;20468;-60
2022/01/23 07:02:44;;;;;;;15.88;7.45;;;;;;;;;;5041766;28;20147;-59
2022/01/23 07:05:17;;;;;;;16.48;6.60;;;;;;;;;;5021492;28;20041;-60
2022/01/23 07:07:44;;;;;;;13.35;6.43;;;;;;;;;;5041332;28;20544;-60
2022/01/23 07:10:10;;;;;;;14.52;6.03;;;;;;;;;;5017904;28;20052;-61
2022/01/23 07:12:37;;;;;;;14.85;6.93;;;;;;;;;;5026083;28;20108;-60
2022/01/23 07:15:07;;;;;;;18.65;6.82;;;;;;;;;;5013164;28;20044;-58
2022/01/23 07:17:38;;;;;;;16.15;7.22;;;;;;;;;;5028657;28;20053;-59
2022/01/23 07:20:06;;;;;;;16.42;6.72;;;;;;;;;;5035737;28;20049;-61
2022/01/23 07:22:32;;;;;;;17.13;7.47;;;;;;;;;;5041089;28;20057;-58
2022/01/23 07:25:02;;;;;;;15.57;6.60;;;;;;;;;;5033714;28;20054;-60
2022/01/23 07:27:33;;;;;;;15.23;6.30;;;;;;;;;;5042553;28;20056;-60
2022/01/23 07:29:59;;;;;;;14.32;5.85;;;;;;;;;;5033707;28;20071;-60
2022/01/23 07:32:27;;;;;;;13.30;6.25;;;;;;;;;;5024618;28;20060;-59
2022/01/23 07:34:54;;;;;;;11.10;5.10;;;;;;;;;;5026837;28;20061;-61
2022/01/23 07:37:21;;;;;;;14.18;5.57;;;;;;;;;;5018604;28;20725;-60
2022/01/23 07:39:47;;;;;;;13.88;5.78;;;;;;;;;;5022460;28;20053;-60
2022/01/23 07:42:14;;;;;;;11.82;5.18;;;;;;;;;;5034109;28;20077;-58
2022/01/23 07:44:43;;;;;;;15.38;5.75;;;;;;;;;;5023427;28;20077;-60
2022/01/23 07:47:09;;;;;;;14.27;5.57;;;;;;;;;;5016787;28;20122;-61
2022/01/23 07:49:37;;;;;;;12.90;5.07;;;;;;;;;;5040641;28;20049;-61
2022/01/23 07:52:11;;;;;;;12.47;5.17;;;;;;;;;;5013864;28;20061;-60
2022/01/23 07:54:40;;;;;;;12.10;5.50;;;;;;;;;;5036710;28;20307;-56
2022/01/23 07:57:06;;;;;;;12.52;5.80;;;;;;;;;;5033980;28;20064;-61
2022/01/23 07:59:34;;;;;;;15.93;6.72;;;;;;;;;;5018178;28;20122;-55
2022/01/23 08:02:01;;;;;;;18.60;7.82;;;;;;;;;;5029671;28;20064;-54
2022/01/23 08:04:27;;;;;;;20.02;8.68;;;;;;;;;;5021627;28;20049;-51
2022/01/23 08:07:08;;;;;;;20.33;7.72;;;;;;;;;;5032367;28;20053;-55
2022/01/23 08:09:35;;;;;;;17.85;7.55;;;;;;;;;;5037453;28;20057;-54
2022/01/23 08:12:01;;;;;;;19.52;8.48;;;;;;;;;;5034999;28;20041;-55
2022/01/23 08:14:28;;;;;;;24.65;9.68;;;;;;;;;;5018831;28;20069;-55
2022/01/23 08:16:55;;;;;;;25.77;10.00;;;;;;;;;;5034345;28;20318;-57
2022/01/23 08:19:21;;;;;;;25.70;10.60;;;;;;;;;;5024191;28;20099;-61
2022/01/23 08:21:48;;;;;;;28.77;10.20;;;;;;;;;;5022899;28;20147;-56
2022/01/23 08:24:16;;;;;;;19.10;9.10;;;;;;;;;;5017721;28;20148;-56
2022/01/23 08:26:43;;;;;;;21.38;8.85;;;;;;;;;;5020824;28;20119;-52
2022/01/23 08:29:10;;;;;;;26.25;9.73;;;;;;;;;;5016544;28;20132;-54
2022/01/23 08:31:36;;;;;;;23.35;9.70;;;;;;;;;;5045366;28;20044;-57
2022/01/23 08:34:03;;;;;;;22.63;9.82;;;;;;;;;;5014385;28;20173;-54
2022/01/23 08:36:33;;;;;;;21.77;8.88;;;;;;;;;;5020221;28;20052;-54
2022/01/23 08:39:01;;;;;;;18.00;7.60;;;;;;;;;;5017417;28;20147;-57
2022/01/23 08:44:13;;;;;;;20.38;7.63;;;;;;;;;;5029881;28;20083;-57
2022/01/23 08:46:39;;;;;;;15.60;7.03;;;;;;;;;;5023787;28;20048;-59
2022/01/23 08:49:06;;;;;;;23.17;9.02;;;;;;;;;;5019929;28;20055;-55
2022/01/23 08:51:32;;;;;;;23.52;9.38;;;;;;;;;;5024280;28;20123;-60
2022/01/23 08:54:02;;;;;;;19.52;7.65;;;;;;;;;;5016188;28;20037;-56
2022/01/23 08:56:31;;;;;;;22.30;8.93;;;;;;;;;;5024086;28;20166;-55
2022/01/23 08:58:57;;;;;;;18.50;7.40;;;;;;;;;;5017385;28;20041;-56
2022/01/23 09:01:24;;;;;;;16.17;7.07;;;;;;;;;;5025520;28;20482;-60
2022/01/23 09:03:51;;;;;;;13.90;6.55;;;;;;;;;;5027989;28;20048;-56
2022/01/23 09:06:18;;;;;;;14.50;6.38;;;;;;;;;;5023339;28;20134;-56
2022/01/23 09:08:45;;;;;;;17.38;7.00;;;;;;;;;;5023742;28;20141;-59
2022/01/23 09:11:24;;;;;;;15.98;6.65;;;;;;;;;;5030880;28;20502;-60
2022/01/23 09:14:06;;;;;;;;;;;;;;;;;;5034693;28;20055;-59
2022/01/23 09:16:34;;;;;;;12.00;5.18;;;;;;;;;;5022255;28;19925;-58
2022/01/23 09:19:01;;;;;;;19.98;8.00;;;;;;;;;;5018597;28;20053;-60
2022/01/23 09:21:28;;;;;;;19.60;7.97;;;;;;;;;;5016332;28;20053;-57
2022/01/23 09:23:54;;;;;;;19.63;8.38;;;;;;;;;;5023274;28;20138;-52
2022/01/23 09:26:23;;;;;;;20.27;9.07;;;;;;;;;;5028541;28;20044;-54
2022/01/23 09:28:50;;;;;;;21.33;9.02;;;;;;;;;;5038800;28;20061;-59
2022/01/23 09:31:26;;;;;;;19.73;7.95;;;;;;;;;;5015832;28;20049;-59
2022/01/23 09:33:55;;;;;;;17.33;7.60;;;;;;;;;;5039847;28;20067;-60
2022/01/23 09:36:21;;;;;;;;;;;;;;;;;;5029264;28;20057;-56
2022/01/23 09:38:48;;;;;;;16.85;5.70;;;;;;;;;;5021387;28;19925;-60
2022/01/23 09:41:17;;;;;;;24.17;8.30;;;;;;;;;;5017063;28;20143;-59
2022/01/23 09:43:46;;;;;;;19.10;7.45;;;;;;;;;;5025822;28;20057;-60
2022/01/23 09:46:14;;;;;;;19.13;7.07;;;;;;;;;;5026881;28;20056;-57
2022/01/23 09:48:42;;;;;;;12.93;5.63;;;;;;;;;;5021509;28;20117;-61
2022/01/23 09:51:10;;;;;;;19.23;7.57;;;;;;;;;;5019502;28;20125;-59
2022/01/23 09:53:38;;;;;;;20.20;7.90;;;;;;;;;;5020624;28;20057;-56
2022/01/23 09:56:06;;;;;;;17.35;7.72;;;;;;;;;;5045581;28;20163;-60
2022/01/23 09:58:32;;;;;;;20.00;7.60;;;;;;;;;;5024139;28;20481;-52
2022/01/23 10:00:59;;;;;;;15.35;6.80;;;;;;;;;;5013181;28;20087;-54
2022/01/23 10:03:25;;;;;;;16.92;6.90;;;;;;;;;;5025461;28;20053;-59
2022/01/23 10:05:54;;;;;;;17.73;6.97;;;;;;;;;;5023599;28;20144;-56
2022/01/23 10:08:22;;;;;;;18.65;7.07;;;;;;;;;;5016681;28;20068;-54
2022/01/23 10:10:51;;;;;;;19.08;6.70;;;;;;;;;;5026527;28;20053;-56
2022/01/23 10:13:18;;;;;;;15.77;6.80;;;;;;;;;;5019390;28;20053;-51
2022/01/23 10:15:45;;;;;;;17.02;7.07;;;;;;;;;;5043211;28;20141;-58
2022/01/23 10:18:12;;;;;;;19.38;8.57;;;;;;;;;;5021874;28;20061;-56
2022/01/23 10:20:40;;;;;;;17.70;7.28;;;;;;;;;;5029962;28;20049;-54
2022/01/23 10:23:06;;;;;;;18.20;7.85;;;;;;;;;;5017605;28;20056;-56
2022/01/23 10:25:36;;;;;;;18.92;7.25;;;;;;;;;;5022666;28;20081;-57
2022/01/23 10:28:05;;;;;;;21.02;8.07;;;;;;;;;;5032404;28;20049;-53
2022/01/23 10:30:33;;;;;;;18.20;7.47;;;;;;;;;;5039363;28;20081;-60
2022/01/23 10:33:03;;;;;;;14.83;6.03;;;;;;;;;;5048164;28;20049;-55
2022/01/23 10:35:30;;;;;;;13.85;6.40;;;;;;;;;;5040503;28;20056;-59
2022/01/23 10:37:56;;;;;;;12.00;5.47;;;;;;;;;;5036017;28;20041;-56
2022/01/23 10:40:27;;;;;;;20.75;8.00;;;;;;;;;;5045624;28;20052;-54
2022/01/23 10:48:42;;;;;;;18.88;7.35;;;;;;;;;;5059077;28;20057;-59
2022/01/23 10:51:29;;;;;;;12.43;5.32;;;;;;;;;;5065592;28;20072;-55
2022/01/23 10:54:15;;;;;;;14.18;5.97;;;;;;;;;;5058907;28;20045;-52
2022/01/23 10:57:01;;;;;;;13.75;6.25;;;;;;;;;;5053919;28;20084;-56
2022/01/23 10:59:39;;;;;;;15.23;6.40;;;;;;;;;;5069674;28;20489;-54
2022/01/23 11:02:08;;;;;;;12.82;5.45;;;;;;;;;;5044693;28;20053;-57
2022/01/23 11:04:39;;;;;;;16.80;7.03;;;;;;;;;;5053673;28;20139;-53
2022/01/23 11:07:07;;;;;;;14.13;6.25;;;;;;;;;;5065555;28;20052;-60
2022/01/23 11:09:36;;;;;;;12.45;5.88;;;;;;;;;;5050689;28;20081;-60
2022/01/23 11:12:12;;;;;;;18.98;7.43;;;;;;;;;;5062828;28;20148;-59
2022/01/23 11:17:27;;;;;;;11.27;5.15;;;;;;;;;;5065755;28;20063;-57
2022/01/23 11:19:56;;;;;;;15.68;6.25;;;;;;;;;;5058476;28;20048;-58
2022/01/23 11:22:24;;;;;;;13.85;5.00;;;;;;;;;;5064797;28;20053;-57
2022/01/23 11:24:52;;;;;;;14.27;6.23;;;;;;;;;;5047961;28;20049;-57
2022/01/23 11:27:20;;;;;;;22.27;7.45;;;;;;;;;;5054313;28;20310;-58
2022/01/23 11:29:57;;;;;;;17.45;7.13;;;;;;;;;;5055154;28;20049;-57
2022/01/23 11:32:26;;;;;;;15.35;6.35;;;;;;;;;;5042045;28;20063;-56
2022/01/23 11:35:00;;;;;;;14.75;6.43;;;;;;;;;;5053433;28;20056;-57
2022/01/23 11:37:27;;;;;;;19.05;7.85;;;;;;;;;;5044879;28;20045;-57
2022/01/23 11:39:59;;;;;;;13.68;5.75;;;;;;;;;;5039590;28;20053;-59
2022/01/23 11:50:51;;;;;;;12.60;5.18;;;;;;;;;;5059966;28;20049;-53
2022/01/23 11:53:47;;;;;;;13.38;5.82;;;;;;;;;;5071763;28;20144;-58
2022/01/23 11:56:35;;;;;;;14.50;5.40;;;;;;;;;;5051702;28;20057;-58
2022/01/23 11:59:14;;;;;;;15.45;6.43;;;;;;;;;;5052007;28;20056;-57
2022/01/23 12:01:41;;;;;;;11.48;5.18;;;;;;;;;;5045243;28;20049;-58
2022/01/23 12:04:17;;;;;;;11.50;5.18;;;;;;;;;;5051090;28;20057;-57
2022/01/23 12:07:05;;;;;;;15.13;5.80;;;;;;;;;;5043987;28;20045;-53
2022/01/23 12:09:32;;;;;;;16.50;6.78;;;;;;;;;;5032228;28;20049;-55
2022/01/23 12:12:07;;;;;;;19.65;7.20;;;;;;;;;;5025575;28;20054;-56
2022/01/23 12:17:22;;;;;;;12.95;5.03;;;;;;;;;;5025359;28;20064;-57
2022/01/23 12:19:52;;;;;;;19.65;6.20;;;;;;;;;;5032263;28;20087;-57
2022/01/23 12:22:25;;;;;;;14.05;5.78;;;;;;;;;;5033300;28;20056;-57
2022/01/23 12:24:53;;;;;;;13.63;5.22;;;;;;;;;;5049159;28;20136;-54
2022/01/23 12:27:24;;;;;;;14.07;5.53;;;;;;;;;;5043737;28;20099;-57
2022/01/23 12:29:50;;;;;;;13.77;5.90;;;;;;;;;;5050843;28;20128;-57
2022/01/23 12:32:18;;;;;;;14.63;5.40;;;;;;;;;;5040313;28;20049;-58
2022/01/23 12:34:55;;;;;;;15.23;5.97;;;;;;;;;;5030918;28;20399;-57
2022/01/23 12:37:21;;;;;;;14.38;5.70;;;;;;;;;;5028472;28;20052;-54
2022/01/23 12:40:02;;;;;;;14.82;6.15;;;;;;;;;;5050602;28;20138;-56
2022/01/23 12:42:44;;;;;;;12.70;5.60;;;;;;;;;;5040813;28;20057;-54
2022/01/23 12:45:29;;;;;;;12.55;5.55;;;;;;;;;;5029218;28;20049;-56
2022/01/23 12:48:11;;;;;;;13.65;5.15;;;;;;;;;;5015000;28;20101;-57
2022/01/23 12:50:46;;;;;;;11.82;4.55;;;;;;;;;;5027660;28;20054;-56
2022/01/23 12:53:12;;;;;;;13.25;5.53;;;;;;;;;;5040399;28;20099;-55
2022/01/23 12:56:01;;;;;;;15.38;6.30;;;;;;;;;;5031408;28;20091;-54
2022/01/23 12:58:27;;;;;;;;;;;;;;;;;;5031099;28;20053;-54
2022/01/23 13:00:54;;;;;;;15.88;5.55;;;;;;;;;;5050423;28;20003;-54
2022/01/23 13:03:24;;;;;;;11.70;4.57;;;;;;;;;;5043593;28;20135;-57
2022/01/23 13:05:52;;;;;;;13.40;5.00;;;;;;;;;;5050392;28;20111;-56
2022/01/23 13:08:22;;;;;;;13.63;5.07;;;;;;;;;;5041963;28;20095;-60
2022/01/23 13:11:07;;;;;;;18.23;6.93;;;;;;;;;;5049750;28;20110;-59
2022/01/23 13:13:37;;;;;;;17.45;6.43;;;;;;;;;;5042722;28;20123;-55
2022/01/23 13:16:33;;;;;;;13.35;5.90;;;;;;;;;;5050728;28;20433;-56
2022/01/23 13:19:43;;;;;;;17.52;6.90;;;;;;;;;;5041201;28;20068;-57
2022/01/23 13:30:35;;;;;;;19.50;5.97;;;;;;;;;;4983168;28;19921;-56
2022/01/23 13:33:08;;;;;;;21.55;7.57;;;;;;;;;;5048219;28;20315;-53
2022/01/23 13:35:41;;;;;;;15.55;5.55;;;;;;;;;;5027997;28;20054;-56
2022/01/23 13:38:14;;;;;;;14.00;5.85;;;;;;;;;;5021956;28;20547;-57
2022/01/23 13:40:42;;;;;;;19.52;6.82;;;;;;;;;;5032219;28;20044;-56
2022/01/23 13:51:42;;;;;;;21.00;7.97;;;;;;;;;;4983268;28;20102;-53
2022/01/23 13:57:37;;;;;;;14.50;6.00;;;;;;;;;;5029245;28;20053;-58
2022/01/23 13:59:55;;;;;;;14.00;5.13;;;;;;;;;;5028572;28;19928;-54
2022/01/23 14:02:23;;;;;;;15.88;6.40;;;;;;;;;;5023409;28;20149;-56
2022/01/23 14:04:51;;;;;;;15.52;6.35;;;;;;;;;;5029242;28;20045;-57
2022/01/23 14:07:20;;;;;;;13.30;5.20;;;;;;;;;;5023365;28;20050;-56
2022/01/23 14:09:48;;;;;;;13.63;5.97;;;;;;;;;;5029397;28;20128;-55
2022/01/23 14:12:16;;;;;;;11.25;4.40;;;;;;;;;;5009377;28;20057;-56
2022/01/23 14:14:54;;;;;;;14.48;6.60;;;;;;;;;;5028101;28;20061;-61
2022/01/23 14:17:21;;;;;;;18.17;7.50;;;;;;;;;;5030646;28;20404;-60
2022/01/23 14:19:59;;;;;;;14.43;6.35;;;;;;;;;;5030066;28;20069;-56
2022/01/23 14:22:29;;;;;;;15.80;6.45;;;;;;;;;;5023560;28;20073;-58
2022/01/23 14:25:09;;;;;;;16.60;6.70;;;;;;;;;;5055239;28;20045;-58
2022/01/23 14:27:36;;;;;;;15.07;6.07;;;;;;;;;;5044409;28;20094;-58
2022/01/23 14:30:07;;;;;;;15.90;6.63;;;;;;;;;;5029317;28;20057;-55
2022/01/23 14:32:41;;;;;;;17.20;6.28;;;;;;;;;;5021077;28;20042;-55
2022/01/23 14:35:12;;;;;;;12.93;5.55;;;;;;;;;;5031148;28;20055;-58
2022/01/23 14:37:39;;;;;;;13.85;5.40;;;;;;;;;;5042507;28;20071;-59
2022/01/23 14:40:12;;;;;;;10.80;4.63;;;;;;;;;;5043005;28;20521;-57
2022/01/23 14:42:39;;;;;;;21.20;6.55;;;;;;;;;;5022931;28;20057;-56
2022/01/23 14:45:07;;;;;;;13.52;6.13;;;;;;;;;;5027895;28;20088;-60
2022/01/23 14:47:35;;;;;;;11.45;4.97;;;;;;;;;;5021156;28;20049;-60
2022/01/23 14:50:02;;;;;;;11.00;4.90;;;;;;;;;;5027280;28;20057;-58
2022/01/23 14:52:30;;;;;;;15.90;5.05;;;;;;;;;;5020696;28;20088;-60
2022/01/23 14:54:57;;;;;;;14.13;5.05;;;;;;;;;;5035376;28;20056;-57
2022/01/23 14:57:26;;;;;;;11.70;4.97;;;;;;;;;;5045675;28;20049;-57
2022/01/23 14:59:53;;;;;;;14.15;5.82;;;;;;;;;;5056389;28;20057;-61
2022/01/23 15:02:19;;;;;;;12.43;5.30;;;;;;;;;;5051637;28;20079;-60
2022/01/23 15:04:47;;;;;;;15.68;5.90;;;;;;;;;;5042016;28;20049;-59
2022/01/23 15:07:18;;;;;;;18.80;6.05;;;;;;;;;;5047992;28;20067;-60
2022/01/23 15:09:46;;;;;;;13.70;5.30;;;;;;;;;;5025175;28;20054;-58
2022/01/23 15:12:13;;;;;;;13.82;5.15;;;;;;;;;;5028171;28;20113;-60
2022/01/23 15:14:42;;;;;;;11.40;4.57;;;;;;;;;;5029156;28;20052;-59
2022/01/23 15:17:09;;;;;;;;;;;;;;;;;;5010988;28;20054;-57
2022/01/23 15:19:36;;;;;;;20.20;6.32;;;;;;;;;;5013061;28;20027;-60
2022/01/23 15:22:03;;;;;;;15.02;5.60;;;;;;;;;;5027874;28;20049;-57
2022/01/23 15:24:30;;;;;;;18.70;6.78;;;;;;;;;;5021093;28;20600;-54
2022/01/23 15:26:57;;;;;;;13.40;5.57;;;;;;;;;;5026774;28;20064;-56
2022/01/23 15:29:23;;;;;;;16.00;6.28;;;;;;;;;;5020408;28;20100;-59
2022/01/23 15:31:51;;;;;;;12.80;5.97;;;;;;;;;;5029937;28;20510;-58
2022/01/23 15:34:20;;;;;;;14.02;5.85;;;;;;;;;;5023708;28;20059;-61
2022/01/23 15:36:47;;;;;;;18.38;6.95;;;;;;;;;;5031842;28;20049;-59
2022/01/23 15:39:15;;;;;;;18.65;6.07;;;;;;;;;;5025521;28;20053;-59
2022/01/23 15:41:41;;;;;;;17.65;5.80;;;;;;;;;;5031049;28;20119;-60
2022/01/23 15:44:08;;;;;;;11.27;5.00;;;;;;;;;;5043770;28;20053;-55
2022/01/23 15:46:36;;;;;;;14.88;6.07;;;;;;;;;;5028579;28;20103;-55
2022/01/23 15:49:04;;;;;;;13.65;5.82;;;;;;;;;;5031775;28;20081;-57
2022/01/23 15:51:30;;;;;;;16.33;5.75;;;;;;;;;;5035867;28;20070;-59
2022/01/23 15:54:01;;;;;;;17.20;5.88;;;;;;;;;;5050003;28;20441;-59
2022/01/23 15:56:27;;;;;;;12.10;4.35;;;;;;;;;;5045195;28;20190;-59
2022/01/23 15:58:54;;;;;;;13.40;5.22;;;;;;;;;;5051683;28;20053;-52
2022/01/23 16:01:21;;;;;;;11.23;5.00;;;;;;;;;;5045503;28;20048;-54
2022/01/23 16:03:48;;;;;;;12.82;5.40;;;;;;;;;;5049638;28;20567;-60
2022/01/23 16:06:16;;;;;;;16.52;6.50;;;;;;;;;;5045510;28;20053;-59
2022/01/23 16:08:42;;;;;;;12.00;4.77;;;;;;;;;;5051709;28;20063;-56
2022/01/23 16:11:09;;;;;;;17.27;6.32;;;;;;;;;;5044917;28;20139;-57
2022/01/23 16:13:38;;;;;;;21.75;6.80;;;;;;;;;;5051485;28;20513;-60
2022/01/23 16:16:05;;;;;;;22.27;6.43;;;;;;;;;;5045115;28;20107;-59
2022/01/23 16:18:31;;;;;;;14.35;5.43;;;;;;;;;;5051478;28;20045;-59
2022/01/23 16:20:58;;;;;;;14.32;6.35;;;;;;;;;;5045320;28;20052;-58
2022/01/23 16:23:26;;;;;;;12.98;5.57;;;;;;;;;;5048073;28;20110;-56
2022/01/23 16:25:53;;;;;;;15.07;5.97;;;;;;;;;;5044657;28;20558;-59
2022/01/23 16:28:23;;;;;;;14.88;6.22;;;;;;;;;;5051212;28;20068;-57
2022/01/23 16:30:50;;;;;;;11.90;5.25;;;;;;;;;;5038320;28;20046;-61
2022/01/23 16:33:18;;;;;;;13.60;6.03;;;;;;;;;;5047517;28;20135;-60
2022/01/23 16:35:50;;;;;;;12.70;5.50;;;;;;;;;;5031580;28;20045;-61
2022/01/23 16:38:18;;;;;;;14.00;5.00;;;;;;;;;;5027112;28;20130;-59
2022/01/23 16:40:46;;;;;;;17.95;6.72;;;;;;;;;;5050774;28;20061;-58
2022/01/23 16:43:23;;;;;;;18.35;6.20;;;;;;;;;;5043902;28;20063;-59
2022/01/23 16:45:51;;;;;;;15.32;6.28;;;;;;;;;;5042233;28;20060;-60
2022/01/23 16:48:18;;;;;;;14.25;5.40;;;;;;;;;;5034301;28;20056;-57
2022/01/23 16:50:45;;;;;;;14.57;5.57;;;;;;;;;;5049666;28;20138;-56
2022/01/23 16:53:16;;;;;;;13.98;5.75;;;;;;;;;;5042024;28;20049;-57
2022/01/23 16:55:56;;;;;;;13.63;5.80;;;;;;;;;;5037955;28;20048;-60
2022/01/23 16:58:23;;;;;;;14.20;5.57;;;;;;;;;;5035537;28;20131;-61
2022/01/23 17:00:49;;;;;;;13.57;5.13;;;;;;;;;;5055764;28;20344;-58
2022/01/23 17:03:15;;;;;;;16.17;5.75;;;;;;;;;;5022470;28;20053;-61
2022/01/23 17:05:47;;;;;;;14.43;5.78;;;;;;;;;;5035402;28;20072;-57
2022/01/23 17:08:15;;;;;;;13.23;5.60;;;;;;;;;;5040332;28;20145;-58
2022/01/23 17:10:41;;;;;;;16.27;6.57;;;;;;;;;;5034991;28;20045;-57
2022/01/23 17:13:10;;;;;;;15.93;6.10;;;;;;;;;;5021644;28;20045;-58
2022/01/23 17:15:44;;;;;;;14.40;5.40;;;;;;;;;;5028000;28;20057;-57
2022/01/23 17:18:11;;;;;;;16.00;6.05;;;;;;;;;;5020025;28;20068;-57
2022/01/23 17:20:38;;;;;;;14.52;5.55;;;;;;;;;;5027484;28;20141;-60
2022/01/23 17:23:05;;;;;;;15.65;4.95;;;;;;;;;;5035543;28;20065;-55